Tracy, Iowa
Current Conditions -  °F | °C
As of 4:35 PM on Wednesday 22 Oct 2014 (Local Time) from KPEA Reporting Station
Broken Clouds Broken Clouds  
Wind Chill: 63°   Ceiling: 4200
Heat Index: 63°   Visibility: 10mi
Dew Point: 45°   Wind: 12mph
Humidity: 52%   Direction: 140°SE
Pressure: 30.15"   Gusts: 16mph
Location:  41.28°N, 92.88°W
Report Text: KPEA 222135Z AUTO 14010G14KT 10SM BKN042 BKN060 17/07 A3015 RMK AO2 T01700072
Loading
Personal Weather Stations






























Interactive Weather Map
Tropical Storm Tracking
New forecast layout! Learn more

10-Day Weather Forecast

Advertisements
Track Severe Weather on mobile